Time;durP1;ratioP1;P1;durP2;ratioP2;P2;SDS_P1;SDS_P2;PMS_P1;PMS_P2;Temp;Humidity;BMP_temperature;BMP_pressure;BME280_temperature;BME280_humidity;BME280_pressure;Samples;Min_cycle;Max_cycle;Signal;HPM_P1;HPM_P2
2024/03/12 00:00:40;;;;;;;13.15;7.50;;;6.10;99.90;;;-148.53;100.00;63986.66;5016146;28;20049;-79
2024/03/12 00:03:09;;;;;;;13.38;7.38;;;6.20;99.90;;;-148.53;100.00;63986.66;5020938;28;20033;-79
2024/03/12 00:05:36;;;;;;;14.98;7.68;;;6.40;99.90;;;-148.53;100.00;63986.66;5032880;28;20056;-79
2024/03/12 00:08:02;;;;;;;9.93;6.47;;;6.50;99.90;;;-148.53;100.00;63986.66;5035882;28;20042;-79
2024/03/12 00:10:29;;;;;;;13.60;7.15;;;6.50;99.90;;;-148.53;100.00;63986.66;5040978;28;20041;-78
2024/03/12 00:12:56;;;;;;;13.73;7.30;;;6.50;99.90;;;-148.53;100.00;63986.66;5022843;28;20038;-78
2024/03/12 00:15:23;;;;;;;13.43;6.78;;;6.40;99.90;;;-148.53;100.00;63986.66;5020874;28;20116;-78
2024/03/12 00:17:53;;;;;;;11.48;6.43;;;6.30;99.90;;;-148.53;100.00;63986.66;5020886;28;20045;-79
2024/03/12 00:20:29;;;;;;;11.90;6.53;;;6.20;99.90;;;-148.53;100.00;63986.66;5011441;28;20037;-78
2024/03/12 00:22:57;;;;;;;10.85;6.20;;;6.20;99.90;;;-148.53;100.00;63986.66;5020884;28;20140;-78
2024/03/12 00:25:23;;;;;;;12.27;6.97;;;6.20;99.90;;;-148.53;100.00;63986.66;5022469;28;20043;-78
2024/03/12 00:27:50;;;;;;;12.00;6.28;;;6.10;99.90;;;-148.53;100.00;63986.66;5022978;28;20041;-78
2024/03/12 00:30:18;;;;;;;10.30;5.95;;;6.10;99.90;;;-148.53;100.00;63986.66;5018841;28;20041;-78
2024/03/12 00:32:47;;;;;;;12.65;6.93;;;6.00;99.90;;;-148.53;100.00;63986.66;5019383;28;20166;-78
2024/03/12 00:35:14;;;;;;;13.00;6.85;;;5.80;99.90;;;-148.53;100.00;63986.66;5021224;28;20040;-79
2024/03/12 00:37:41;;;;;;;11.13;6.60;;;5.80;99.90;;;-148.53;100.00;63986.66;5016220;28;20042;-79
2024/03/12 00:40:13;;;;;;;14.17;6.60;;;5.70;99.90;;;-148.53;100.00;63986.66;5023461;28;20559;-78
2024/03/12 00:42:40;;;;;;;13.80;7.07;;;5.60;99.90;;;-148.53;100.00;63986.66;5015645;28;20034;-79
2024/03/12 00:45:11;;;;;;;13.70;7.60;;;5.60;99.90;;;-148.53;100.00;63986.66;5020157;28;20033;-80
2024/03/12 00:47:42;;;;;;;12.35;7.43;;;5.50;99.90;;;-148.53;100.00;63986.66;5021288;28;20317;-79
2024/03/12 00:50:11;;;;;;;12.35;7.00;;;5.40;99.90;;;-148.53;100.00;63986.66;5028463;28;20049;-78
2024/03/12 00:52:41;;;;;;;11.32;6.43;;;5.10;99.90;;;-148.53;100.00;63986.66;5022234;28;20038;-79
2024/03/12 00:55:16;;;;;;;11.65;6.55;;;4.90;99.90;;;-148.53;100.00;63986.66;5018053;28;20486;-79
2024/03/12 00:57:42;;;;;;;12.85;6.75;;;4.70;99.90;;;-148.53;100.00;63986.66;5021925;28;20041;-78
2024/03/12 01:00:16;;;;;;;12.77;6.90;;;4.50;99.90;;;-148.53;100.00;63986.66;5016855;28;20138;-79
2024/03/12 01:02:49;;;;;;;12.80;7.10;;;4.30;99.90;;;-148.53;100.00;63986.66;5023877;28;20562;-79
2024/03/12 01:05:24;;;;;;;14.27;7.22;;;4.20;99.90;;;-148.53;100.00;63986.66;5032168;28;20048;-78
2024/03/12 01:07:54;;;;;;;13.65;7.40;;;4.20;99.90;;;-148.53;100.00;63986.66;5032291;28;20540;-78
2024/03/12 01:10:21;;;;;;;13.70;7.57;;;4.10;99.90;;;-148.53;100.00;63986.66;5025282;28;20026;-79
2024/03/12 01:12:51;;;;;;;13.07;7.72;;;4.10;99.90;;;-148.53;100.00;63986.66;5020304;28;20108;-79
2024/03/12 01:15:21;;;;;;;14.90;8.30;;;4.20;99.90;;;-148.53;100.00;63986.66;5024427;28;20553;-79
2024/03/12 01:17:47;;;;;;;13.25;7.22;;;4.30;99.90;;;-148.53;100.00;63986.66;5035912;28;20087;-79
2024/03/12 01:20:16;;;;;;;14.73;8.00;;;4.30;99.90;;;-148.53;100.00;63986.66;5031925;28;20516;-78
2024/03/12 01:22:43;;;;;;;14.27;7.75;;;4.30;99.90;;;-148.53;100.00;63986.66;5037655;28;20034;-78
2024/03/12 01:25:10;;;;;;;13.75;6.90;;;4.30;99.90;;;-148.53;100.00;63986.66;5036767;28;20044;-78
2024/03/12 01:27:36;;;;;;;14.68;7.93;;;4.30;99.90;;;-148.53;100.00;63986.66;5019337;28;20045;-78
2024/03/12 01:30:08;;;;;;;16.00;7.85;;;4.30;99.90;;;-148.53;100.00;63986.66;5020904;28;20041;-78
2024/03/12 01:32:38;;;;;;;14.10;7.47;;;4.30;99.90;;;-148.53;100.00;63986.66;5020160;28;20045;-78
2024/03/12 01:35:08;;;;;;;14.57;7.55;;;4.20;99.90;;;-148.53;100.00;63986.66;5022846;28;20033;-79
2024/03/12 01:37:41;;;;;;;13.82;7.40;;;4.10;99.90;;;-148.53;100.00;63986.66;5020695;28;20034;-78
2024/03/12 01:40:21;;;;;;;13.75;7.30;;;3.90;99.90;;;-148.53;100.00;63986.66;5023224;28;20114;-79
2024/03/12 01:42:53;;;;;;;12.15;7.40;;;3.70;99.90;;;-148.53;100.00;63986.66;5015828;28;20466;-78
2024/03/12 01:45:24;;;;;;;14.02;7.75;;;3.50;99.90;;;-148.53;100.00;63986.66;5021223;28;20037;-78
2024/03/12 01:47:55;;;;;;;13.77;7.78;;;;;;;-148.53;100.00;63986.66;5020546;28;20033;-78
2024/03/12 01:50:24;;;;;;;13.63;7.63;;;3.30;99.90;;;-148.53;100.00;63986.66;5032349;28;20042;-78
2024/03/12 01:52:56;;;;;;;14.55;8.60;;;3.30;99.90;;;-148.53;100.00;63986.66;5030139;28;20095;-79
2024/03/12 01:55:22;;;;;;;15.50;8.00;;;3.20;99.90;;;-148.53;100.00;63986.66;5031498;28;20120;-78
2024/03/12 01:57:51;;;;;;;15.80;8.63;;;3.10;99.90;;;-148.53;100.00;63986.66;5039697;28;20121;-78
2024/03/12 02:00:17;;;;;;;15.55;8.77;;;3.20;99.90;;;-148.53;100.00;63986.66;5024973;28;20038;-78
2024/03/12 02:02:47;;;;;;;15.68;8.18;;;3.30;99.90;;;-148.53;100.00;63986.66;5024225;28;20413;-78
2024/03/12 02:05:13;;;;;;;15.93;8.73;;;3.30;99.90;;;-148.53;100.00;63986.66;5023880;28;20045;-78
2024/03/12 02:07:46;;;;;;;17.20;8.43;;;3.20;99.90;;;-148.53;100.00;63986.66;5017610;28;20378;-79
2024/03/12 02:10:14;;;;;;;17.15;9.02;;;3.20;99.90;;;-148.53;100.00;63986.66;5032582;28;20072;-78
2024/03/12 02:12:41;;;;;;;17.58;8.20;;;3.00;99.90;;;-148.53;100.00;63986.66;5022767;28;20049;-78
2024/03/12 02:15:08;;;;;;;15.40;8.60;;;2.80;99.90;;;-148.53;100.00;63986.66;5029386;28;20075;-78
2024/03/12 02:17:34;;;;;;;16.13;8.63;;;2.60;99.90;;;-148.53;100.00;63986.66;5020272;28;20028;-78
2024/03/12 02:20:00;;;;;;;17.27;9.13;;;2.50;99.90;;;-148.53;100.00;63986.66;5021591;28;20426;-78
2024/03/12 02:22:30;;;;;;;16.95;9.00;;;2.50;99.90;;;-148.53;100.00;63986.66;5022630;28;20117;-78
2024/03/12 02:24:56;;;;;;;21.60;8.88;;;2.40;99.90;;;-148.53;100.00;63986.66;5024916;28;20069;-77
2024/03/12 02:27:21;;;;;;;16.77;10.02;;;2.40;99.90;;;-148.53;100.00;63986.66;5019776;28;20045;-77
2024/03/12 02:29:47;;;;;;;16.70;9.45;;;2.40;99.90;;;-148.53;100.00;63986.66;5026607;28;20192;-78
2024/03/12 02:32:13;;;;;;;19.05;9.82;;;2.50;99.90;;;-148.53;100.00;63986.66;5025796;28;20092;-78
2024/03/12 02:34:39;;;;;;;18.77;9.68;;;2.50;99.90;;;-148.53;100.00;63986.66;5026943;28;20025;-78
2024/03/12 02:37:05;;;;;;;20.33;10.20;;;2.50;99.90;;;-148.53;100.00;63986.66;5020882;28;20042;-78
2024/03/12 02:39:31;;;;;;;20.63;10.20;;;2.50;99.90;;;-148.53;100.00;63986.66;5023390;28;20065;-78
2024/03/12 02:42:00;;;;;;;18.00;9.50;;;2.50;99.90;;;-148.53;100.00;63986.66;5040239;28;20033;-78
2024/03/12 02:44:26;;;;;;;19.75;10.10;;;2.40;99.90;;;-148.53;100.00;63986.66;5023030;28;20863;-78
2024/03/12 02:46:54;;;;;;;20.00;10.88;;;2.40;99.90;;;-148.53;100.00;63986.66;5027511;28;20041;-78
2024/03/12 02:49:22;;;;;;;19.35;10.18;;;2.40;99.90;;;-148.53;100.00;63986.66;5031648;28;20026;-78
2024/03/12 02:51:49;;;;;;;21.23;10.48;;;2.30;99.90;;;-148.53;100.00;63986.66;5022280;28;20033;-78
2024/03/12 02:54:20;;;;;;;19.65;10.05;;;2.30;99.90;;;-148.53;100.00;63986.66;5025216;28;20060;-78
2024/03/12 02:56:47;;;;;;;20.15;10.65;;;2.20;99.90;;;-148.53;100.00;63986.66;5024224;28;20124;-78
2024/03/12 02:59:13;;;;;;;19.88;10.38;;;2.20;99.90;;;-148.53;100.00;63986.66;5018004;28;20038;-78
2024/03/12 03:01:40;;;;;;;19.45;10.55;;;2.20;99.90;;;-148.53;100.00;63986.66;5025583;28;20037;-78
2024/03/12 03:04:08;;;;;;;16.88;9.57;;;2.20;99.90;;;-148.53;100.00;63986.66;5025346;28;20025;-78
2024/03/12 03:06:37;;;;;;;;;;;2.20;99.90;;;-148.53;100.00;63986.66;5026976;28;20444;-78
2024/03/12 03:09:09;;;;;;;17.33;10.07;;;2.30;99.90;;;-148.53;100.00;63986.66;5031102;28;19921;-78
2024/03/12 03:11:35;;;;;;;18.00;9.52;;;2.40;99.90;;;-148.53;100.00;63986.66;5022718;28;20073;-78
2024/03/12 03:14:02;;;;;;;19.67;9.90;;;2.60;99.90;;;-148.53;100.00;63986.66;5024855;28;20041;-79
2024/03/12 03:16:28;;;;;;;20.23;10.18;;;2.80;99.90;;;-148.53;100.00;63986.66;5023758;28;20112;-78
2024/03/12 03:18:55;;;;;;;21.83;10.05;;;3.20;99.90;;;-148.53;100.00;63986.66;5027154;28;20038;-78
2024/03/12 03:21:20;;;;;;;19.50;10.50;;;3.50;99.90;;;-148.53;100.00;63986.66;5032706;28;20045;-78
2024/03/12 03:23:46;;;;;;;22.08;10.63;;;3.70;99.90;;;-148.53;100.00;63986.66;5025155;28;20425;-78
2024/03/12 03:26:12;;;;;;;25.05;10.23;;;3.90;99.90;;;-148.53;100.00;63986.66;5017793;28;20045;-79
2024/03/12 03:28:38;;;;;;;18.05;9.25;;;4.10;99.90;;;-148.53;100.00;63986.66;5025269;28;20034;-79
2024/03/12 03:31:04;;;;;;;16.10;9.40;;;4.20;99.90;;;-148.53;100.00;63986.66;5013479;28;20068;-79
2024/03/12 03:33:31;;;;;;;17.40;9.82;;;4.30;99.90;;;-148.53;100.00;63986.66;5019764;28;20042;-78
2024/03/12 03:35:57;;;;;;;20.30;9.88;;;4.20;99.90;;;-148.53;100.00;63986.66;5026389;28;20033;-79
2024/03/12 03:38:27;;;;;;;18.67;9.40;;;4.30;99.90;;;-148.53;100.00;63986.66;5025410;28;20407;-78
2024/03/12 03:40:53;;;;;;;16.73;9.30;;;4.30;99.90;;;-148.53;100.00;63986.66;5025731;28;20550;-79
2024/03/12 03:43:19;;;;;;;16.45;9.50;;;4.10;99.90;;;-148.53;100.00;63986.66;5024393;28;20069;-78
2024/03/12 03:45:45;;;;;;;17.42;9.15;;;4.10;99.90;;;-148.53;100.00;63986.66;5020976;28;20481;-78
2024/03/12 03:48:10;;;;;;;16.20;9.10;;;4.20;99.90;;;-148.53;100.00;63986.66;5023846;28;20124;-79
2024/03/12 03:50:36;;;;;;;16.20;9.15;;;4.10;99.90;;;-148.53;100.00;63986.66;5023272;28;20433;-78
2024/03/12 03:53:02;;;;;;;15.50;8.85;;;4.20;99.90;;;-148.53;100.00;63986.66;5029979;28;20044;-79
2024/03/12 03:55:28;;;;;;;15.65;9.00;;;4.30;99.90;;;-148.53;100.00;63986.66;5021528;28;20041;-78
2024/03/12 03:57:53;;;;;;;17.85;9.05;;;4.40;99.90;;;-148.53;100.00;63986.66;5019784;28;20118;-79
2024/03/12 04:00:23;;;;;;;15.45;8.82;;;4.50;99.90;;;-148.53;100.00;63986.66;5024920;28;20045;-78
2024/03/12 04:02:51;;;;;;;15.40;8.27;;;4.60;99.90;;;-148.53;100.00;63986.66;5022858;28;20091;-79
2024/03/12 04:05:18;;;;;;;16.25;8.48;;;4.80;99.90;;;-148.53;100.00;63986.66;5023032;28;20413;-78
2024/03/12 04:07:44;;;;;;;14.75;8.27;;;5.00;99.90;;;-148.53;100.00;63986.66;5024185;28;20591;-78
2024/03/12 04:10:10;;;;;;;12.63;7.53;;;5.10;99.90;;;-148.53;100.00;63986.66;5022641;28;20053;-78
2024/03/12 04:12:44;;;;;;;13.85;7.28;;;5.20;99.90;;;-148.53;100.00;63986.66;5023743;28;20034;-78
2024/03/12 04:15:12;;;;;;;11.80;7.32;;;5.30;99.90;;;-148.53;100.00;63986.66;5017341;28;20044;-78
2024/03/12 04:17:39;;;;;;;12.40;6.90;;;5.20;99.90;;;-148.53;100.00;63986.66;5022770;28;20048;-79
2024/03/12 04:20:09;;;;;;;13.40;7.28;;;5.20;99.90;;;-148.53;100.00;63986.66;5020215;28;20588;-79
2024/03/12 04:22:38;;;;;;;14.20;7.00;;;5.20;99.90;;;-148.53;100.00;63986.66;5030189;28;20500;-79
2024/03/12 04:25:08;;;;;;;12.35;6.50;;;5.10;99.90;;;-148.53;100.00;63986.66;5025371;28;20037;-79
2024/03/12 04:27:37;;;;;;;11.38;6.53;;;5.10;99.90;;;-148.53;100.00;63986.66;5026127;28;20049;-78
2024/03/12 04:30:12;;;;;;;11.02;6.63;;;5.10;99.90;;;-148.53;100.00;63986.66;5020469;28;20037;-79
2024/03/12 04:32:39;;;;;;;13.43;7.05;;;5.10;99.90;;;-148.53;100.00;63986.66;5024257;28;20041;-79
2024/03/12 04:35:06;;;;;;;11.65;7.38;;;5.10;99.90;;;-148.53;100.00;63986.66;5015972;28;20080;-79
2024/03/12 04:37:32;;;;;;;12.75;7.63;;;5.10;99.90;;;-148.53;100.00;63986.66;5025982;28;20030;-79
2024/03/12 04:40:00;;;;;;;14.27;7.20;;;5.10;99.90;;;-148.53;100.00;63986.66;5017989;28;20112;-79
2024/03/12 04:42:27;;;;;;;12.30;6.75;;;5.20;99.90;;;-148.53;100.00;63986.66;5017030;28;20038;-78
2024/03/12 04:44:56;;;;;;;13.13;7.10;;;5.20;99.90;;;-148.53;100.00;63986.66;5015520;28;20046;-79
2024/03/12 04:47:22;;;;;;;11.88;6.80;;;5.30;99.90;;;-148.53;100.00;63986.66;5033338;28;20049;-79
2024/03/12 04:49:48;;;;;;;11.85;7.43;;;5.30;99.90;;;-148.53;100.00;63986.66;5026292;28;20423;-79
2024/03/12 04:52:15;;;;;;;10.95;6.40;;;5.20;99.90;;;-148.53;100.00;63986.66;5021059;28;20048;-79
2024/03/12 04:54:42;;;;;;;11.15;7.03;;;5.20;99.90;;;-148.53;100.00;63986.66;5024359;28;20488;-79
2024/03/12 04:57:08;;;;;;;10.63;6.43;;;5.10;99.90;;;-148.53;100.00;63986.66;5024078;28;20524;-79
2024/03/12 04:59:34;;;;;;;14.23;6.90;;;5.10;99.90;;;-148.53;100.00;63986.66;5025878;28;20116;-78
2024/03/12 05:02:00;;;;;;;13.00;6.82;;;5.10;99.90;;;-148.53;100.00;63986.66;5014591;28;20119;-79
2024/03/12 05:04:26;;;;;;;11.88;6.53;;;5.10;99.90;;;-148.53;100.00;63986.66;5016406;28;20401;-78
2024/03/12 05:06:51;;;;;;;10.88;6.38;;;5.20;99.90;;;-148.53;100.00;63986.66;5020814;28;20196;-79
2024/03/12 05:09:18;;;;;;;10.65;6.25;;;5.20;99.90;;;-148.53;100.00;63986.66;5025389;28;20136;-78
2024/03/12 05:11:47;;;;;;;10.48;6.82;;;5.20;99.90;;;-148.53;100.00;63986.66;5020961;28;20038;-78
2024/03/12 05:14:13;;;;;;;11.82;6.72;;;5.20;99.90;;;-148.53;100.00;63986.66;5020300;28;20033;-79
2024/03/12 05:16:39;;;;;;;9.63;6.22;;;5.20;99.90;;;-148.53;100.00;63986.66;5017624;28;20087;-78
2024/03/12 05:19:07;;;;;;;11.63;6.80;;;5.20;99.90;;;-148.53;100.00;63986.66;5019435;28;20030;-79
2024/03/12 05:21:33;;;;;;;9.70;6.30;;;5.20;99.90;;;-148.53;100.00;63986.66;5016822;28;20369;-78
2024/03/12 05:23:59;;;;;;;11.32;6.88;;;5.20;99.90;;;-148.53;100.00;63986.66;5019384;28;20033;-78
2024/03/12 05:26:28;;;;;;;10.40;6.80;;;5.30;99.90;;;-148.53;100.00;63986.66;5030469;28;20030;-79
2024/03/12 05:28:57;;;;;;;12.07;6.95;;;5.30;99.90;;;-148.53;100.00;63986.66;5040713;28;20048;-78
2024/03/12 05:31:32;;;;;;;9.30;6.25;;;5.30;99.90;;;-148.53;100.00;63986.66;5022127;28;20046;-79
2024/03/12 05:34:02;;;;;;;14.02;6.50;;;5.40;99.90;;;-148.53;100.00;63986.66;5025618;28;20445;-78
2024/03/12 05:37:28;;;;;;;10.95;6.40;;;5.40;99.90;;;-148.53;100.00;63986.66;5020963;28;20042;-81
2024/03/12 05:39:26;;;;;;;10.73;6.25;;;5.60;99.90;;;-148.53;100.00;63986.66;5020907;28;20053;-79
2024/03/12 05:50:16;;;;;;;12.20;6.32;;;6.00;99.90;;;-148.53;100.00;63986.66;5037277;28;20040;-80
2024/03/12 05:52:45;;;;;;;11.18;6.00;;;6.10;99.90;;;-148.53;100.00;63986.66;5027165;28;20088;-78
2024/03/12 05:55:11;;;;;;;11.10;6.07;;;6.10;99.90;;;-148.53;100.00;63986.66;5019615;28;20049;-79
2024/03/12 05:57:37;;;;;;;13.32;6.57;;;6.10;99.90;;;-148.53;100.00;63986.66;5027129;28;20037;-82
2024/03/12 06:00:03;;;;;;;12.05;5.60;;;6.20;99.90;;;-148.53;100.00;63986.66;5049121;28;20041;-80
2024/03/12 06:02:38;;;;;;;9.40;5.78;;;6.30;99.90;;;-148.53;100.00;63986.66;5027849;28;20030;-78
2024/03/12 06:05:06;;;;;;;9.95;5.72;;;6.30;99.90;;;-148.53;100.00;63986.66;5023253;28;20513;-78
2024/03/12 06:07:33;;;;;;;10.43;6.00;;;6.40;99.90;;;-148.53;100.00;63986.66;5037443;28;20393;-78
2024/03/12 06:09:58;;;;;;;9.48;5.72;;;6.50;99.90;;;-148.53;100.00;63986.66;5023521;28;20033;-79
2024/03/12 06:12:24;;;;;;;9.95;5.45;;;6.60;99.90;;;-148.53;100.00;63986.66;5027709;28;20037;-79
2024/03/12 06:14:50;;;;;;;12.80;5.50;;;6.70;99.90;;;-148.53;100.00;63986.66;5031075;28;20042;-78
2024/03/12 06:17:16;;;;;;;8.95;5.95;;;6.70;99.90;;;-148.53;100.00;63986.66;5030786;28;20042;-78
2024/03/12 06:19:44;;;;;;;9.88;5.65;;;6.80;99.90;;;-148.53;100.00;63986.66;5032811;28;20050;-79
2024/03/12 06:22:10;;;;;;;10.68;5.55;;;6.90;99.90;;;-148.53;100.00;63986.66;5019055;28;20046;-79
2024/03/12 06:24:36;;;;;;;11.02;5.82;;;6.90;99.90;;;-148.53;100.00;63986.66;5038260;28;20121;-79
2024/03/12 06:27:02;;;;;;;8.93;5.55;;;7.00;99.90;;;-148.53;100.00;63986.66;5028695;28;20029;-78
2024/03/12 06:29:28;;;;;;;9.35;5.97;;;7.10;99.90;;;-148.53;100.00;63986.66;5028606;28;20473;-78
2024/03/12 06:31:54;;;;;;;11.20;6.07;;;7.10;99.90;;;-148.53;100.00;63986.66;5020385;28;20397;-79
2024/03/12 06:34:21;;;;;;;10.63;6.43;;;7.10;99.90;;;-148.53;100.00;63986.66;5036805;28;20033;-77
2024/03/12 06:36:55;;;;;;;15.55;6.80;;;7.10;99.90;;;-148.53;100.00;63986.66;5020697;28;20149;-79
2024/03/12 06:39:23;;;;;;;11.20;6.18;;;7.20;99.90;;;-148.53;100.00;63986.66;5022800;28;20042;-78
2024/03/12 06:41:49;;;;;;;12.68;6.70;;;7.20;99.90;;;-148.53;100.00;63986.66;5016828;28;20563;-76
2024/03/12 06:44:20;;;;;;;10.07;6.30;;;7.30;99.90;;;-148.53;100.00;63986.66;5023341;28;20115;-76
2024/03/12 06:46:46;;;;;;;10.00;6.00;;;7.30;99.90;;;-148.53;100.00;63986.66;5013724;28;20033;-76
2024/03/12 06:49:12;;;;;;;9.82;6.00;;;7.30;99.90;;;-148.53;100.00;63986.66;5024695;28;20182;-76
2024/03/12 06:51:38;;;;;;;10.75;6.07;;;7.40;99.90;;;-148.53;100.00;63986.66;5033839;28;20033;-76
2024/03/12 06:54:04;;;;;;;10.60;6.55;;;7.40;99.90;;;-148.53;100.00;63986.66;5034138;28;20048;-76
2024/03/12 06:56:31;;;;;;;9.57;5.63;;;7.40;99.90;;;-148.53;100.00;63986.66;5013522;28;20053;-76
2024/03/12 06:58:57;;;;;;;9.95;5.50;;;7.50;99.90;;;-148.53;100.00;63986.66;5037338;28;20041;-76
2024/03/12 07:01:29;;;;;;;10.73;6.13;;;7.50;99.90;;;-148.53;100.00;63986.66;5024136;28;20048;-76
2024/03/12 07:03:57;;;;;;;9.20;6.32;;;7.50;99.90;;;-148.53;100.00;63986.66;5025664;28;20029;-77
2024/03/12 07:06:24;;;;;;;11.13;6.20;;;7.50;99.90;;;-148.53;100.00;63986.66;5025809;28;20096;-76
2024/03/12 07:08:50;;;;;;;9.85;5.70;;;7.60;99.90;;;-148.53;100.00;63986.66;5040286;28;20029;-76
2024/03/12 07:11:17;;;;;;;9.77;6.07;;;7.70;99.90;;;-148.53;100.00;63986.66;5035285;28;20049;-76
2024/03/12 07:13:43;;;;;;;9.93;6.28;;;7.80;99.90;;;-148.53;100.00;63986.66;5027393;28;20497;-76
2024/03/12 07:16:09;;;;;;;10.70;6.32;;;7.90;99.90;;;-148.53;100.00;63986.66;5026938;28;20029;-76
2024/03/12 07:18:35;;;;;;;13.60;7.20;;;8.00;99.90;;;-148.53;100.00;63986.66;5021059;28;20133;-77
2024/03/12 07:21:01;;;;;;;11.02;6.28;;;8.10;99.90;;;-148.53;100.00;63986.66;5026118;28;20105;-77
2024/03/12 07:23:26;;;;;;;11.75;6.72;;;8.10;99.90;;;-148.53;100.00;63986.66;5025234;28;20053;-77
2024/03/12 07:25:52;;;;;;;10.75;6.28;;;8.10;99.90;;;-148.53;100.00;63986.66;5019237;28;20049;-77
2024/03/12 07:28:18;;;;;;;10.27;6.32;;;8.20;99.90;;;-148.53;100.00;63986.66;5019564;28;20042;-77
2024/03/12 07:30:44;;;;;;;15.25;7.63;;;8.20;99.90;;;-148.53;100.00;63986.66;5030180;28;20039;-77
2024/03/12 07:33:10;;;;;;;17.40;8.18;;;8.30;99.90;;;-148.53;100.00;63986.66;5025488;28;20042;-77
2024/03/12 07:35:35;;;;;;;26.58;9.20;;;8.30;99.90;;;-148.53;100.00;63986.66;5038364;28;20033;-77
2024/03/12 07:38:02;;;;;;;22.70;8.70;;;8.30;99.90;;;-148.53;100.00;63986.66;5043059;28;20026;-76
2024/03/12 07:40:28;;;;;;;13.95;7.93;;;8.30;99.90;;;-148.53;100.00;63986.66;5039611;28;20038;-76
2024/03/12 07:42:54;;;;;;;12.10;7.07;;;8.30;99.90;;;-148.53;100.00;63986.66;5021881;28;20366;-77
2024/03/12 07:45:24;;;;;;;10.95;7.25;;;8.30;99.90;;;-148.53;100.00;63986.66;5029175;28;20042;-77
2024/03/12 07:47:51;;;;;;;15.02;7.60;;;8.30;99.90;;;-148.53;100.00;63986.66;5023768;28;20040;-77
2024/03/12 07:50:17;;;;;;;11.63;7.63;;;8.40;99.90;;;-148.53;100.00;63986.66;5040220;28;20034;-77
2024/03/12 07:52:43;;;;;;;19.25;8.80;;;8.50;99.90;;;-148.53;100.00;63986.66;5034612;28;20042;-76
2024/03/12 07:55:09;;;;;;;23.67;10.85;;;8.60;99.90;;;-148.53;100.00;63986.66;5019218;28;20041;-77
2024/03/12 07:57:35;;;;;;;12.75;8.30;;;8.70;99.90;;;-148.53;100.00;63986.66;5043917;28;20038;-78
2024/03/12 08:00:11;;;;;;;13.77;8.50;;;8.70;99.90;;;-148.53;100.00;63986.66;5021118;28;20036;-78
2024/03/12 08:02:39;;;;;;;14.32;9.25;;;8.70;99.90;;;-148.53;100.00;63986.66;5022571;28;20033;-78
2024/03/12 08:05:05;;;;;;;14.98;10.00;;;8.80;99.90;;;-148.53;100.00;63986.66;5022871;28;20117;-78
2024/03/12 08:07:31;;;;;;;19.08;11.32;;;8.90;99.90;;;-148.53;100.00;63986.66;5028240;28;20129;-77
2024/03/12 08:09:57;;;;;;;21.77;11.50;;;8.90;99.90;;;-148.53;100.00;63986.66;5014447;28;20050;-77
2024/03/12 08:12:22;;;;;;;19.83;11.23;;;8.90;99.90;;;-148.53;100.00;63986.66;5018624;28;20066;-78
2024/03/12 08:14:49;;;;;;;23.15;12.90;;;9.00;99.90;;;-148.53;100.00;63986.66;5012508;28;20048;-78
2024/03/12 08:17:15;;;;;;;22.95;13.50;;;9.10;99.90;;;-148.53;100.00;63986.66;5027992;28;20041;-75
2024/03/12 08:19:44;;;;;;;23.15;13.57;;;9.20;99.90;;;-148.53;100.00;63986.66;5029849;28;20041;-77
2024/03/12 08:22:10;;;;;;;27.08;14.23;;;9.20;99.90;;;-148.53;100.00;63986.66;5025122;28;20037;-76
2024/03/12 08:24:39;;;;;;;23.92;13.60;;;9.30;99.90;;;-148.53;100.00;63986.66;5024731;28;20489;-77
2024/03/12 08:27:09;;;;;;;29.95;14.45;;;9.40;99.90;;;-148.53;100.00;63986.66;5026134;28;20045;-77
2024/03/12 08:29:35;;;;;;;26.08;14.95;;;9.40;99.90;;;-148.53;100.00;63986.66;5018963;28;20125;-76
2024/03/12 08:32:01;;;;;;;27.92;14.20;;;9.50;99.90;;;-148.53;100.00;63986.66;5031544;28;20386;-77
2024/03/12 08:34:27;;;;;;;27.30;14.88;;;9.60;99.90;;;-148.53;100.00;63986.66;5027516;28;20044;-77
2024/03/12 08:36:55;;;;;;;24.50;14.48;;;9.70;99.90;;;-148.53;100.00;63986.66;5029216;28;20037;-78
2024/03/12 08:39:21;;;;;;;26.10;14.52;;;9.80;99.90;;;-148.53;100.00;63986.66;5017508;28;20038;-77
2024/03/12 08:41:47;;;;;;;24.08;13.75;;;9.80;99.90;;;-148.53;100.00;63986.66;5025023;28;20508;-77
2024/03/12 08:44:13;;;;;;;25.10;15.23;;;9.90;99.90;;;-148.53;100.00;63986.66;5018381;28;20125;-77
2024/03/12 08:46:39;;;;;;;25.73;15.90;;;9.90;99.90;;;-148.53;100.00;63986.66;5016069;28;20037;-77
2024/03/12 08:49:05;;;;;;;26.85;15.75;;;10.00;99.90;;;-148.53;100.00;63986.66;5025853;28;20120;-78
2024/03/12 08:51:36;;;;;;;25.02;15.98;;;10.10;99.90;;;-148.53;100.00;63986.66;5035387;28;20045;-76
2024/03/12 08:54:04;;;;;;;23.73;14.65;;;10.10;99.90;;;-148.53;100.00;63986.66;5029374;28;20384;-77
2024/03/12 08:56:30;;;;;;;25.23;16.23;;;10.30;99.90;;;-148.53;100.00;63986.66;5024048;28;20037;-77
2024/03/12 08:58:59;;;;;;;25.38;15.82;;;10.40;99.90;;;-148.53;100.00;63986.66;5024671;28;20041;-77
2024/03/12 09:01:25;;;;;;;24.98;15.32;;;10.50;99.90;;;-148.53;100.00;63986.66;5018923;28;20036;-76
2024/03/12 09:03:52;;;;;;;24.92;15.13;;;10.40;99.90;;;-148.53;100.00;63986.66;5018807;28;20474;-77
2024/03/12 09:06:19;;;;;;;25.08;15.05;;;10.40;99.90;;;-148.53;100.00;63986.66;5021625;28;20048;-77
2024/03/12 09:08:45;;;;;;;23.40;15.25;;;10.40;99.90;;;-148.53;100.00;63986.66;5018792;28;20108;-76
2024/03/12 09:11:16;;;;;;;29.30;16.00;;;10.30;99.90;;;-148.53;100.00;63986.66;5029565;28;20565;-77
2024/03/12 09:13:44;;;;;;;25.95;14.98;;;10.20;99.90;;;-148.53;100.00;63986.66;5022317;28;20037;-77
2024/03/12 09:16:12;;;;;;;22.83;15.25;;;10.20;99.90;;;-148.53;100.00;63986.66;5034183;28;20045;-76
2024/03/12 09:18:42;;;;;;;23.35;15.27;;;10.20;99.90;;;-148.53;100.00;63986.66;5025035;28;20463;-76
2024/03/12 09:21:09;;;;;;;26.95;16.15;;;10.20;99.90;;;-148.53;100.00;63986.66;5024015;28;20455;-77
2024/03/12 09:23:36;;;;;;;27.75;15.57;;;10.20;99.90;;;-148.53;100.00;63986.66;5033876;28;20034;-77
2024/03/12 09:26:04;;;;;;;26.77;15.90;;;10.20;99.90;;;-148.53;100.00;63986.66;5025283;28;20033;-76
2024/03/12 09:28:30;;;;;;;23.33;14.25;;;10.10;99.90;;;-148.53;100.00;63986.66;5021779;28;20076;-76
2024/03/12 09:30:56;;;;;;;26.13;15.65;;;10.00;99.90;;;-148.53;100.00;63986.66;5030580;28;20033;-76
2024/03/12 09:33:25;;;;;;;26.27;15.45;;;10.10;99.90;;;-148.53;100.00;63986.66;5017527;28;20038;-76
2024/03/12 09:35:53;;;;;;;26.85;15.82;;;10.30;99.90;;;-148.53;100.00;63986.66;5021102;28;20037;-76
2024/03/12 09:38:19;;;;;;;27.00;15.77;;;10.40;99.90;;;-148.53;100.00;63986.66;5022657;28;20134;-76
2024/03/12 09:40:49;;;;;;;25.48;15.40;;;;;;;-148.53;100.00;63986.66;5022543;28;20979;-76
2024/03/12 09:43:18;;;;;;;26.02;15.63;;;;;;;-148.53;100.00;63986.66;5008481;28;20041;-76
2024/03/12 09:45:47;;;;;;;22.67;14.10;;;;;;;-148.53;100.00;63986.66;5020319;28;20496;-77
2024/03/12 09:48:14;;;;;;;25.17;15.07;;;;;;;-148.53;100.00;63986.66;5031643;28;20052;-77
2024/03/12 09:50:44;;;;;;;22.93;14.30;;;;;;;-148.53;100.00;63986.66;5026904;28;20038;-79
2024/03/12 09:53:14;;;;;;;23.33;14.57;;;;;;;-148.53;100.00;63986.66;5023860;28;20041;-79
2024/03/12 09:55:42;;;;;;;23.63;14.32;;;;;;;-148.53;100.00;63986.66;5020583;28;20109;-78
2024/03/12 09:58:08;;;;;;;19.48;13.55;;;;;;;-148.53;100.00;63986.66;5021023;28;20065;-78
2024/03/12 10:00:36;;;;;;;23.90;14.57;;;;;;;-148.53;100.00;63986.66;5022402;28;20030;-78
2024/03/12 10:03:03;;;;;;;25.05;14.00;;;;;;;-148.53;100.00;63986.66;5025759;28;20038;-79
2024/03/12 10:05:31;;;;;;;21.42;14.32;;;;;;;-148.53;100.00;63986.66;5022303;28;20120;-78
2024/03/12 10:08:14;;;;;;;;;;;;;;;-148.53;100.00;63986.66;5037378;28;20030;-78
2024/03/12 10:10:52;;;;;;;22.25;13.73;;;;;;;-148.53;100.00;63986.66;5020069;28;19917;-78